Notice: Undefined index: station in /home3/dimtiris/public_html/webApp/metar/index.php on line 4

Metar

Weather conditions for all airports of the world. Just type the ICAO code of an airport.

LGAV 031150Z 20008KT 9999 FEW018TCU SCT030 16/09 Q1006 WS R21R NOSIG

STATION LGAV
OBSERVED Tue May 3, 05:50 MDT
NOW Tue May 3, 06:24 MDT
AGE 34 min ago
WIND SSW at 9 mph
VISIBILITY 16 miles
CONDITIONS
CLOUDS scattered clouds
TEMP 61°F (16°C)
DEWPT 48°F (9°C)
HUMIDITY 63%
BAROMETER 1006 hPa (29.71 in Hg)

Get weather info from other station:

Some ICAO codes to try: